createdAt,value
2023-02-27T00:02:37.420Z,66.03
2023-02-27T00:07:39.011Z,65.36
2023-02-27T00:12:41.166Z,65.59
2023-02-27T00:17:43.351Z,65.74
2023-02-27T00:22:45.743Z,66.48
2023-02-27T00:27:47.168Z,66.47
2023-02-27T00:32:48.586Z,66.67
2023-02-27T00:37:50.132Z,67.10
2023-02-27T00:42:52.346Z,67.10
2023-02-27T00:47:53.851Z,68.22
2023-02-27T00:52:55.305Z,68.12
2023-02-27T00:57:56.731Z,68.25
2023-02-27T01:02:58.159Z,68.03
2023-02-27T01:07:59.948Z,68.14
2023-02-27T01:13:01.477Z,68.57
2023-02-27T01:18:02.991Z,68.08
2023-02-27T01:23:04.532Z,69.03
2023-02-27T01:28:05.972Z,69.07
2023-02-27T01:33:08.841Z,69.24
2023-02-27T01:38:10.290Z,69.72
2023-02-27T01:43:19.506Z,70.10
2023-02-27T01:48:31.571Z,70.07
2023-02-27T01:53:35.485Z,70.53
2023-02-27T01:58:37.975Z,70.42
2023-02-27T02:03:49.010Z,70.20
2023-02-27T02:08:54.701Z,70.75
2023-02-27T02:13:58.584Z,71.00
2023-02-27T02:19:15.907Z,70.73
2023-02-27T02:24:38.883Z,71.25
2023-02-27T02:29:55.659Z,71.67
2023-02-27T02:35:33.336Z,71.89
2023-02-27T02:40:46.945Z,71.68
2023-02-27T02:46:13.477Z,71.95
2023-02-27T02:51:34.902Z,72.50
2023-02-27T02:56:44.144Z,72.39
2023-02-27T03:01:52.456Z,72.74
2023-02-27T03:07:02.722Z,72.66
2023-02-27T03:12:05.648Z,73.14
2023-02-27T03:17:14.481Z,72.78
2023-02-27T03:22:22.764Z,73.09
2023-02-27T03:27:28.120Z,73.51
2023-02-27T03:32:43.464Z,73.39
2023-02-27T03:38:00.012Z,73.31
2023-02-27T03:43:20.900Z,73.26
2023-02-27T03:48:22.736Z,73.64
2023-02-27T03:53:41.008Z,73.85
2023-02-27T03:58:42.717Z,73.88
2023-02-27T04:03:52.372Z,73.82
2023-02-27T04:09:10.987Z,74.42
2023-02-27T04:14:29.900Z,74.32
2023-02-27T04:20:01.763Z,74.28
2023-02-27T04:25:41.145Z,74.14
2023-02-27T04:31:12.073Z,74.40
2023-02-27T04:36:49.062Z,74.41
2023-02-27T04:42:03.345Z,74.52
2023-02-27T04:47:08.572Z,74.44
2023-02-27T04:52:19.766Z,74.78
2023-02-27T04:57:27.892Z,74.74
2023-02-27T05:02:35.865Z,74.69
2023-02-27T05:07:43.309Z,74.23
2023-02-27T05:12:51.900Z,74.52
2023-02-27T05:18:02.239Z,74.22
2023-02-27T05:23:26.893Z,74.33
2023-02-27T05:28:46.751Z,74.67
2023-02-27T05:33:58.894Z,74.61
2023-02-27T05:39:04.362Z,75.14
2023-02-27T05:44:12.549Z,74.64
2023-02-27T05:49:16.525Z,74.98
2023-02-27T05:54:44.015Z,74.97
2023-02-27T05:59:53.860Z,74.82
2023-02-27T06:04:55.439Z,74.89
2023-02-27T06:09:56.933Z,74.40
2023-02-27T06:14:58.410Z,74.54
2023-02-27T06:19:59.832Z,74.53
2023-02-27T06:25:01.682Z,74.83
2023-02-27T06:30:03.886Z,74.94
2023-02-27T06:35:06.527Z,74.13
2023-02-27T06:40:14.441Z,74.29
2023-02-27T06:45:16.933Z,74.27
2023-02-27T06:50:18.489Z,72.03
2023-02-27T06:55:22.692Z,70.73
2023-02-27T07:00:24.419Z,68.58
2023-02-27T07:05:26.110Z,66.24
2023-02-27T07:10:27.615Z,64.05
2023-02-27T07:15:29.038Z,60.35
2023-02-27T07:20:30.489Z,57.08
2023-02-27T07:25:31.953Z,54.90
2023-02-27T07:30:33.465Z,54.28
2023-02-27T07:35:35.086Z,54.25
2023-02-27T07:40:36.509Z,52.91
2023-02-27T07:45:38.027Z,52.41
2023-02-27T07:50:39.447Z,48.51
2023-02-27T07:55:40.917Z,47.18
2023-02-27T08:00:42.590Z,45.63
2023-02-27T08:05:44.067Z,44.24
2023-02-27T08:10:45.499Z,42.94
2023-02-27T08:15:46.981Z,42.45
2023-02-27T08:20:48.941Z,44.39
2023-02-27T08:25:50.427Z,45.64
2023-02-27T08:30:51.870Z,46.21
2023-02-27T08:35:54.562Z,46.83
2023-02-27T08:40:56.079Z,47.69
2023-02-27T08:45:57.595Z,46.17
2023-02-27T08:50:59.096Z,48.42
2023-02-27T08:56:00.585Z,48.15
2023-02-27T09:01:03.212Z,48.38
2023-02-27T09:06:05.308Z,47.04
2023-02-27T09:11:07.640Z,49.08
2023-02-27T09:16:09.162Z,48.72
2023-02-27T09:21:10.811Z,49.38
2023-02-27T09:26:12.362Z,48.78
2023-02-27T09:31:13.891Z,48.49
2023-02-27T09:36:16.228Z,45.54
2023-02-27T09:41:39.329Z,44.49
2023-02-27T09:46:40.857Z,44.31
2023-02-27T09:51:42.333Z,44.13
2023-02-27T09:56:56.873Z,44.03
2023-02-27T10:02:08.456Z,42.70
2023-02-27T10:07:17.544Z,42.62
2023-02-27T10:12:33.817Z,43.44
2023-02-27T10:17:50.073Z,42.67
2023-02-27T10:22:54.254Z,41.99
2023-02-27T10:28:01.853Z,41.71
2023-02-27T10:33:12.601Z,41.28
2023-02-27T10:38:32.207Z,41.82
2023-02-27T10:43:33.657Z,41.00
2023-02-27T10:48:35.148Z,42.12
2023-02-27T10:53:36.605Z,42.37
2023-02-27T10:58:38.341Z,43.18
2023-02-27T11:03:42.312Z,42.79
2023-02-27T11:08:43.874Z,42.88
2023-02-27T11:13:45.528Z,43.32
2023-02-27T11:18:49.287Z,43.26
2023-02-27T11:24:00.735Z,43.34
2023-02-27T11:29:18.916Z,44.44
2023-02-27T11:34:30.337Z,44.81
2023-02-27T11:39:36.795Z,44.46
2023-02-27T11:44:50.613Z,43.80
2023-02-27T11:50:04.444Z,45.52
2023-02-27T11:55:15.945Z,44.92
2023-02-27T12:00:36.561Z,44.69
2023-02-27T12:05:39.686Z,44.73
2023-02-27T12:11:12.399Z,45.72
2023-02-27T12:16:32.883Z,45.44
2023-02-27T12:21:41.380Z,45.99
2023-02-27T12:26:50.870Z,47.35
2023-02-27T12:32:14.204Z,45.75
2023-02-27T12:37:24.957Z,45.49
2023-02-27T12:43:21.542Z,45.79
2023-02-27T12:48:51.169Z,46.56
2023-02-27T12:54:41.442Z,45.50
2023-02-27T12:59:52.569Z,45.56
2023-02-27T13:05:35.082Z,45.08
2023-02-27T13:11:02.193Z,44.60
2023-02-27T13:16:14.140Z,44.35
2023-02-27T13:21:25.630Z,44.48
2023-02-27T13:26:36.377Z,45.15
2023-02-27T13:32:04.896Z,45.27
2023-02-27T13:37:09.210Z,44.82
2023-02-27T13:42:26.386Z,45.39
2023-02-27T13:47:31.478Z,44.80
2023-02-27T13:52:36.698Z,44.89
2023-02-27T13:57:38.530Z,45.57
2023-02-27T14:02:57.990Z,45.41
2023-02-27T14:08:04.135Z,45.61
2023-02-27T14:13:26.477Z,45.27
2023-02-27T14:18:54.795Z,46.36
2023-02-27T14:23:56.495Z,45.53
2023-02-27T14:28:59.270Z,45.19
2023-02-27T14:34:05.914Z,46.43
2023-02-27T14:39:17.733Z,46.76
2023-02-27T14:44:21.295Z,45.93
2023-02-27T14:49:29.273Z,45.74
2023-02-27T14:54:30.712Z,44.92
2023-02-27T14:59:44.339Z,45.90
2023-02-27T15:04:46.438Z,45.95
2023-02-27T15:09:49.933Z,46.04
2023-02-27T15:14:54.741Z,46.44
2023-02-27T15:19:58.713Z,46.66
2023-02-27T15:25:03.017Z,46.08
2023-02-27T15:30:05.213Z,45.94
2023-02-27T15:35:18.990Z,46.51
2023-02-27T15:40:29.565Z,45.57
2023-02-27T15:45:33.128Z,45.50
2023-02-27T15:50:37.947Z,46.19
2023-02-27T15:55:46.805Z,46.68
2023-02-27T16:00:51.742Z,46.25
2023-02-27T16:05:53.349Z,46.88
2023-02-27T16:10:54.871Z,46.91
2023-02-27T16:16:05.428Z,46.77
2023-02-27T16:21:13.645Z,46.87
2023-02-27T16:26:20.952Z,47.18
2023-02-27T16:31:30.148Z,47.51
2023-02-27T16:36:32.913Z,47.77
2023-02-27T16:41:35.018Z,47.51
2023-02-27T16:46:36.583Z,47.59
2023-02-27T16:51:38.118Z,47.68
2023-02-27T16:56:40.659Z,47.96
2023-02-27T17:01:42.851Z,48.34
2023-02-27T17:06:44.391Z,47.58
2023-02-27T17:11:45.970Z,48.24
2023-02-27T17:16:47.675Z,47.89
2023-02-27T17:21:49.458Z,48.06
2023-02-27T17:26:52.464Z,48.20
2023-02-27T17:31:54.195Z,48.15
2023-02-27T17:36:55.787Z,47.90
2023-02-27T17:41:57.220Z,47.97
2023-02-27T17:46:58.698Z,47.68
2023-02-27T17:52:00.775Z,48.05
2023-02-27T17:57:02.562Z,48.09
2023-02-27T18:02:03.979Z,48.14
2023-02-27T18:07:05.904Z,48.23
2023-02-27T18:12:07.654Z,48.36
2023-02-27T18:17:12.524Z,49.11
2023-02-27T18:22:16.809Z,48.94
2023-02-27T18:27:18.268Z,48.56
2023-02-27T18:32:19.763Z,48.78
2023-02-27T18:37:21.197Z,48.70
2023-02-27T18:42:22.648Z,49.58
2023-02-27T18:47:24.374Z,49.82
2023-02-27T18:52:26.302Z,49.66
2023-02-27T18:57:27.775Z,49.93
2023-02-27T19:02:29.295Z,50.11
2023-02-27T19:07:30.742Z,50.13
2023-02-27T19:12:32.161Z,50.25
2023-02-27T19:17:33.806Z,50.30
2023-02-27T19:22:35.362Z,50.80
2023-02-27T19:27:37.784Z,51.10
2023-02-27T19:32:39.397Z,51.32
2023-02-27T19:37:42.262Z,51.90
2023-02-27T19:42:44.646Z,51.97
2023-02-27T19:47:46.754Z,52.26
2023-02-27T19:52:48.240Z,52.39
2023-02-27T19:57:49.652Z,53.04
2023-02-27T20:02:51.149Z,53.42
2023-02-27T20:07:53.112Z,53.70
2023-02-27T20:12:54.494Z,53.76
2023-02-27T20:17:55.995Z,54.16
2023-02-27T20:22:58.651Z,54.49
2023-02-27T20:28:00.043Z,54.58
2023-02-27T20:33:01.858Z,55.38
2023-02-27T20:38:03.396Z,55.93
2023-02-27T20:43:04.819Z,55.55
2023-02-27T20:48:07.119Z,55.33
2023-02-27T20:53:08.555Z,55.18
2023-02-27T20:58:09.961Z,55.43
2023-02-27T21:03:11.630Z,54.53
2023-02-27T21:08:13.103Z,53.60
2023-02-27T21:13:14.550Z,53.38
2023-02-27T21:18:15.955Z,53.03
2023-02-27T21:23:17.376Z,52.48
2023-02-27T21:28:19.702Z,52.58
2023-02-27T21:33:22.341Z,53.14
2023-02-27T21:38:23.937Z,53.21
2023-02-27T21:43:25.464Z,53.82
2023-02-27T21:48:27.448Z,54.06
2023-02-27T21:53:29.686Z,54.76
2023-02-27T21:58:31.474Z,55.72
2023-02-27T22:03:35.778Z,56.41
2023-02-27T22:08:38.249Z,56.96
2023-02-27T22:13:39.772Z,56.83
2023-02-27T22:18:41.464Z,57.96
2023-02-27T22:23:44.132Z,58.24
2023-02-27T22:28:45.783Z,58.33
2023-02-27T22:33:49.467Z,58.88
2023-02-27T22:38:51.447Z,59.46
2023-02-27T22:43:53.005Z,59.70
2023-02-27T22:48:59.966Z,59.85
2023-02-27T22:54:03.618Z,59.93
2023-02-27T22:59:05.847Z,60.84
2023-02-27T23:04:08.961Z,60.67
2023-02-27T23:09:22.066Z,61.29
2023-02-27T23:14:23.561Z,61.79
2023-02-27T23:19:25.005Z,62.08
2023-02-27T23:24:26.425Z,62.42
2023-02-27T23:29:27.828Z,62.34
2023-02-27T23:34:40.615Z,62.48
2023-02-27T23:39:51.453Z,63.34
2023-02-27T23:44:52.892Z,63.87
2023-02-27T23:49:54.371Z,63.66
2023-02-27T23:54:55.820Z,64.24
2023-02-27T23:59:57.272Z,64.57
